Boise, Idaho
Current Conditions -  °F | °C
As of 6:53 PM on Friday 28 Nov 2014 (Local Time) from KBOI Reporting Station
Clear Clear  
Wind Chill: 50°   Ceiling: Unl
Heat Index: 50°   Visibility: 10mi
Dew Point: 28°   Wind: 0mph
Humidity: 43%   Direction: NA
Pressure: 29.65"   Gusts: NA
Location:  43.61°N, 116.2°W
Report Text: KBOI 290153Z 00000KT 10SM CLR 10/M02 A2965 RMK AO2 SLP040 T01001022
Loading
Personal Weather Stations






























Interactive Weather Map New forecast layout! Learn more

10-Day Weather Forecast

Advertisements
Track Severe Weather on mobile